createdAt,value
2022-10-19T00:00:28.897Z,13.15
2022-10-19T00:02:55.324Z,13.12
2022-10-19T00:05:21.672Z,13.12
2022-10-19T00:07:48.031Z,13.05
2022-10-19T00:10:14.387Z,13.06
2022-10-19T00:12:40.916Z,13.04
2022-10-19T00:15:07.571Z,12.99
2022-10-19T00:17:34.435Z,12.98
2022-10-19T00:20:01.060Z,12.95
2022-10-19T00:22:27.394Z,12.88
2022-10-19T00:24:56.111Z,12.90
2022-10-19T00:27:22.434Z,12.88
2022-10-19T00:29:48.839Z,12.87
2022-10-19T00:32:15.200Z,12.82
2022-10-19T00:34:41.639Z,12.83
2022-10-19T00:37:07.987Z,12.84
2022-10-19T00:39:34.352Z,12.83
2022-10-19T00:42:00.695Z,12.78
2022-10-19T00:44:30.106Z,12.74
2022-10-19T00:47:01.814Z,12.74
2022-10-19T00:49:33.590Z,12.69
2022-10-19T00:52:05.696Z,12.67
2022-10-19T00:54:32.930Z,12.64
2022-10-19T00:56:59.795Z,12.66
2022-10-19T00:59:27.501Z,12.64
2022-10-19T01:01:54.211Z,12.60
2022-10-19T01:04:21.838Z,12.59
2022-10-19T01:06:48.233Z,12.53
2022-10-19T01:09:14.607Z,12.56
2022-10-19T01:11:53.835Z,12.51
2022-10-19T01:14:20.163Z,12.48
2022-10-19T01:16:55.726Z,12.45
2022-10-19T01:19:25.096Z,12.44
2022-10-19T01:21:59.242Z,12.43
2022-10-19T01:24:40.576Z,12.41
2022-10-19T01:27:13.384Z,12.37
2022-10-19T01:29:58.539Z,12.34
2022-10-19T01:32:30.767Z,12.32
2022-10-19T01:35:06.445Z,12.32
2022-10-19T01:38:02.331Z,12.31
2022-10-19T01:40:38.526Z,12.28
2022-10-19T01:43:20.108Z,12.28
2022-10-19T01:45:55.437Z,12.26
2022-10-19T01:48:23.691Z,12.22
2022-10-19T01:50:59.866Z,12.20
2022-10-19T01:53:28.448Z,12.19
2022-10-19T01:55:55.617Z,12.16
2022-10-19T01:58:26.281Z,12.12
2022-10-19T02:00:53.968Z,12.14
2022-10-19T02:03:20.706Z,12.08
2022-10-19T02:05:48.176Z,12.07
2022-10-19T02:08:17.366Z,12.05
2022-10-19T02:10:45.087Z,12.06
2022-10-19T02:13:13.768Z,12.03
2022-10-19T02:15:42.659Z,12.03
2022-10-19T02:18:10.483Z,12.02
2022-10-19T02:20:37.379Z,11.98
2022-10-19T02:23:05.235Z,11.93
2022-10-19T02:25:32.058Z,11.92
2022-10-19T02:28:00.585Z,11.87
2022-10-19T02:30:26.989Z,11.86
2022-10-19T02:32:53.362Z,11.84
2022-10-19T02:35:19.968Z,11.83
2022-10-19T02:37:46.423Z,11.80
2022-10-19T02:40:13.841Z,11.79
2022-10-19T02:42:40.140Z,11.75
2022-10-19T02:45:06.476Z,11.75
2022-10-19T02:47:38.573Z,11.72
2022-10-19T02:50:06.408Z,11.71
2022-10-19T02:52:32.814Z,11.70
2022-10-19T02:54:59.543Z,11.67
2022-10-19T02:57:25.918Z,11.67
2022-10-19T02:59:52.794Z,11.63
2022-10-19T03:02:20.068Z,11.64
2022-10-19T03:07:15.744Z,11.61
2022-10-19T03:09:42.535Z,11.55
2022-10-19T03:12:09.291Z,11.57
2022-10-19T03:14:35.705Z,11.50
2022-10-19T03:17:02.102Z,11.50
2022-10-19T03:19:28.448Z,11.56
2022-10-19T03:21:54.810Z,11.47
2022-10-19T03:24:21.153Z,11.47
2022-10-19T03:26:47.512Z,11.45
2022-10-19T03:29:13.949Z,11.45
2022-10-19T03:31:40.331Z,11.45
2022-10-19T03:34:06.684Z,11.38
2022-10-19T03:36:34.410Z,11.40
2022-10-19T03:39:02.210Z,11.38
2022-10-19T03:41:29.894Z,11.36
2022-10-19T03:43:56.566Z,11.35
2022-10-19T03:46:23.105Z,11.34
2022-10-19T03:48:49.456Z,11.31
2022-10-19T03:51:20.547Z,11.25
2022-10-19T03:53:47.340Z,11.24
2022-10-19T03:56:15.120Z,11.24
2022-10-19T03:58:42.278Z,11.21
2022-10-19T04:01:10.053Z,11.22
2022-10-19T04:03:36.807Z,11.20
2022-10-19T04:06:03.879Z,11.17
2022-10-19T04:08:30.334Z,11.14
2022-10-19T04:11:04.395Z,11.14
2022-10-19T04:13:31.288Z,11.13
2022-10-19T04:15:57.988Z,11.09
2022-10-19T04:18:24.378Z,11.07
2022-10-19T04:21:01.227Z,11.09
2022-10-19T04:23:28.317Z,11.05
2022-10-19T04:26:01.533Z,11.02
2022-10-19T04:28:28.069Z,10.99
2022-10-19T04:30:54.479Z,10.99
2022-10-19T04:33:20.833Z,10.96
2022-10-19T04:35:47.167Z,10.92
2022-10-19T04:38:13.577Z,10.93
2022-10-19T04:40:39.948Z,10.92
2022-10-19T04:43:06.341Z,10.90
2022-10-19T04:45:34.984Z,10.87
2022-10-19T04:48:01.882Z,10.83
2022-10-19T04:50:28.245Z,10.83
2022-10-19T04:52:55.372Z,10.82
2022-10-19T04:55:21.785Z,10.80
2022-10-19T04:57:48.144Z,10.78
2022-10-19T05:00:14.775Z,10.78
2022-10-19T05:02:44.796Z,10.74
2022-10-19T05:05:12.143Z,10.70
2022-10-19T05:07:38.565Z,10.72
2022-10-19T05:10:05.123Z,10.67
2022-10-19T05:12:31.446Z,10.66
2022-10-19T05:14:57.809Z,10.68
2022-10-19T05:17:24.160Z,10.66
2022-10-19T05:19:50.491Z,10.65
2022-10-19T05:22:16.822Z,10.62
2022-10-19T05:24:43.151Z,10.62
2022-10-19T05:27:09.512Z,10.59
2022-10-19T05:29:35.894Z,10.63
2022-10-19T05:32:02.275Z,10.56
2022-10-19T05:34:28.674Z,10.45
2022-10-19T05:36:55.079Z,10.38
2022-10-19T05:39:21.431Z,10.51
2022-10-19T05:41:47.877Z,10.44
2022-10-19T05:44:18.603Z,10.39
2022-10-19T05:46:44.943Z,10.51
2022-10-19T05:49:12.809Z,10.51
2022-10-19T05:51:39.518Z,10.32
2022-10-19T05:54:06.288Z,10.52
2022-10-19T05:56:32.846Z,10.58
2022-10-19T05:59:00.338Z,10.54
2022-10-19T06:01:27.620Z,10.53
2022-10-19T06:03:54.907Z,10.33
2022-10-19T06:06:21.610Z,10.46
2022-10-19T06:08:48.608Z,10.47
2022-10-19T06:11:19.500Z,10.49
2022-10-19T06:13:46.793Z,10.51
2022-10-19T06:16:15.236Z,10.35
2022-10-19T06:18:42.782Z,10.50
2022-10-19T06:21:13.397Z,10.50
2022-10-19T06:23:40.119Z,10.55
2022-10-19T06:26:07.984Z,10.55
2022-10-19T06:28:34.663Z,10.56
2022-10-19T06:31:01.212Z,10.53
2022-10-19T06:33:28.136Z,10.50
2022-10-19T06:35:54.516Z,10.54
2022-10-19T06:38:21.107Z,10.54
2022-10-19T06:40:49.072Z,10.55
2022-10-19T06:43:15.760Z,10.49
2022-10-19T06:45:42.158Z,10.49
2022-10-19T06:48:08.580Z,10.50
2022-10-19T06:50:35.346Z,10.48
2022-10-19T06:53:01.721Z,10.50
2022-10-19T06:55:28.073Z,10.54
2022-10-19T06:57:54.441Z,10.54
2022-10-19T07:00:20.801Z,10.51
2022-10-19T07:02:47.175Z,10.54
2022-10-19T07:05:13.541Z,10.56
2022-10-19T07:07:39.940Z,10.58
2022-10-19T07:10:06.482Z,10.43
2022-10-19T07:12:32.897Z,10.50
2022-10-19T07:14:59.348Z,10.57
2022-10-19T07:17:25.734Z,10.55
2022-10-19T07:19:52.160Z,10.57
2022-10-19T07:22:23.153Z,10.63
2022-10-19T07:24:52.266Z,10.56
2022-10-19T07:27:18.664Z,10.56
2022-10-19T07:29:45.087Z,10.57
2022-10-19T07:32:11.471Z,10.46
2022-10-19T07:34:37.828Z,10.51
2022-10-19T07:37:04.277Z,10.61
2022-10-19T07:39:30.693Z,10.70
2022-10-19T07:41:57.128Z,10.78
2022-10-19T07:44:23.710Z,10.81
2022-10-19T07:46:50.388Z,10.77
2022-10-19T07:49:18.847Z,10.83
2022-10-19T07:51:46.478Z,10.86
2022-10-19T07:54:13.674Z,10.84
2022-10-19T07:56:40.317Z,10.86
2022-10-19T07:59:06.922Z,10.99
2022-10-19T08:01:34.836Z,10.82
2022-10-19T08:06:47.868Z,10.91
2022-10-19T08:09:28.002Z,10.97
2022-10-19T08:12:00.732Z,10.85
2022-10-19T08:14:27.101Z,10.82
2022-10-19T08:16:53.454Z,10.98
2022-10-19T08:19:19.890Z,11.12
2022-10-19T08:21:46.480Z,11.16
2022-10-19T08:24:13.978Z,11.05
2022-10-19T08:26:40.416Z,11.14
2022-10-19T08:29:07.911Z,11.31
2022-10-19T08:31:34.662Z,11.30
2022-10-19T08:34:01.130Z,11.25
2022-10-19T08:36:31.072Z,11.42
2022-10-19T08:38:57.568Z,11.42
2022-10-19T08:41:30.038Z,11.52
2022-10-19T08:43:56.524Z,11.56
2022-10-19T08:46:22.835Z,11.55
2022-10-19T08:48:49.305Z,11.58
2022-10-19T08:51:15.766Z,11.61
2022-10-19T08:53:53.297Z,11.65
2022-10-19T08:56:55.310Z,11.80
2022-10-19T08:59:26.554Z,11.91
2022-10-19T09:01:55.289Z,11.98
2022-10-19T09:04:24.168Z,12.08
2022-10-19T09:07:00.198Z,12.01
2022-10-19T09:09:28.896Z,12.05
2022-10-19T09:11:58.319Z,12.21
2022-10-19T09:14:24.654Z,12.33
2022-10-19T09:16:51.182Z,12.36
2022-10-19T09:19:26.194Z,12.40
2022-10-19T09:21:56.871Z,12.44
2022-10-19T09:24:29.767Z,12.66
2022-10-19T09:26:58.502Z,12.76
2022-10-19T09:29:31.959Z,12.87
2022-10-19T09:32:00.730Z,12.60
2022-10-19T09:34:36.502Z,12.67
2022-10-19T09:37:03.119Z,12.80
2022-10-19T09:39:30.512Z,13.01
2022-10-19T09:42:19.917Z,13.13
2022-10-19T09:44:46.318Z,13.18
2022-10-19T09:47:29.398Z,13.01
2022-10-19T09:50:14.609Z,13.14
2022-10-19T09:52:42.100Z,13.29
2022-10-19T09:55:14.456Z,13.44
2022-10-19T09:57:45.171Z,13.54
2022-10-19T10:00:17.210Z,13.70
2022-10-19T10:02:48.276Z,13.52
2022-10-19T10:05:15.075Z,13.58
2022-10-19T10:07:41.920Z,13.63
2022-10-19T10:10:09.307Z,13.57
2022-10-19T10:12:36.270Z,13.56
2022-10-19T10:15:04.279Z,13.74
2022-10-19T10:17:31.399Z,13.99
2022-10-19T10:19:57.708Z,14.01
2022-10-19T10:22:32.513Z,13.87
2022-10-19T10:24:59.127Z,14.03
2022-10-19T10:27:30.517Z,13.76
2022-10-19T10:29:57.496Z,13.68
2022-10-19T10:32:24.031Z,13.79
2022-10-19T10:35:03.770Z,13.83
2022-10-19T10:37:30.078Z,13.87
2022-10-19T10:40:00.313Z,13.90
2022-10-19T10:42:36.159Z,13.97
2022-10-19T10:45:03.006Z,14.01
2022-10-19T10:47:29.692Z,14.26
2022-10-19T10:49:58.058Z,14.18
2022-10-19T10:52:25.631Z,14.31
2022-10-19T10:55:10.434Z,14.50
2022-10-19T10:57:43.297Z,14.44
2022-10-19T11:00:13.922Z,14.52
2022-10-19T11:02:54.164Z,14.49
2022-10-19T11:05:34.496Z,14.54
2022-10-19T11:08:12.955Z,14.67
2022-10-19T11:10:42.463Z,14.69
2022-10-19T11:13:08.779Z,14.63
2022-10-19T11:15:41.118Z,14.64
2022-10-19T11:18:10.514Z,14.87
2022-10-19T11:20:39.359Z,14.89
2022-10-19T11:23:19.408Z,14.86
2022-10-19T11:25:45.704Z,15.11
2022-10-19T11:28:18.205Z,15.15
2022-10-19T11:30:53.428Z,15.07
2022-10-19T11:33:40.122Z,15.03
2022-10-19T11:36:19.411Z,14.97
2022-10-19T11:39:00.841Z,15.13
2022-10-19T11:41:32.964Z,15.05
2022-10-19T11:44:14.708Z,15.15
2022-10-19T11:46:59.401Z,15.13
2022-10-19T11:49:28.817Z,15.09
2022-10-19T11:52:14.012Z,15.18
2022-10-19T11:54:49.490Z,15.37
2022-10-19T11:57:21.866Z,15.27
2022-10-19T12:00:03.844Z,15.39
2022-10-19T12:03:02.823Z,15.40
2022-10-19T12:05:38.875Z,15.42
2022-10-19T12:08:13.097Z,15.37
2022-10-19T12:10:55.553Z,15.47
2022-10-19T12:13:25.933Z,15.56
2022-10-19T12:15:54.059Z,15.51
2022-10-19T12:18:23.497Z,15.53
2022-10-19T12:20:52.156Z,15.59
2022-10-19T12:23:21.849Z,15.59
2022-10-19T12:25:48.684Z,15.59
2022-10-19T12:28:21.968Z,15.65
2022-10-19T12:30:48.671Z,15.85
2022-10-19T12:33:15.035Z,15.84
2022-10-19T12:35:52.536Z,15.85
2022-10-19T12:38:22.041Z,15.79
2022-10-19T12:40:55.882Z,15.74
2022-10-19T12:43:40.967Z,15.87
2022-10-19T12:46:07.363Z,15.87
2022-10-19T12:48:36.297Z,15.90
2022-10-19T12:51:04.251Z,15.89
2022-10-19T12:53:37.975Z,15.94
2022-10-19T12:56:33.560Z,15.99
2022-10-19T12:59:01.617Z,16.09
2022-10-19T13:01:42.060Z,15.98
2022-10-19T13:04:20.886Z,16.06
2022-10-19T13:06:51.227Z,15.94
2022-10-19T13:09:23.881Z,15.95
2022-10-19T13:12:09.098Z,16.03
2022-10-19T13:14:41.481Z,15.95
2022-10-19T13:17:08.435Z,15.89
2022-10-19T13:19:35.094Z,15.92
2022-10-19T13:22:01.551Z,16.00
2022-10-19T13:24:27.961Z,15.94
2022-10-19T13:27:03.690Z,15.91
2022-10-19T13:29:40.696Z,15.88
2022-10-19T13:32:25.787Z,15.88
2022-10-19T13:34:52.196Z,15.76
2022-10-19T13:37:18.792Z,15.83
2022-10-19T13:39:45.173Z,15.83
2022-10-19T13:42:25.565Z,15.89
2022-10-19T13:44:53.234Z,15.86
2022-10-19T13:47:19.609Z,15.73
2022-10-19T13:49:52.104Z,15.63
2022-10-19T13:52:21.534Z,15.80
2022-10-19T13:55:07.842Z,15.69
2022-10-19T13:57:48.890Z,15.68
2022-10-19T14:00:20.872Z,15.70
2022-10-19T14:02:59.583Z,15.72
2022-10-19T14:05:28.981Z,15.50
2022-10-19T14:08:08.717Z,15.61
2022-10-19T14:10:56.350Z,15.49
2022-10-19T14:13:22.306Z,15.49
2022-10-19T14:15:53.055Z,15.49
2022-10-19T14:18:27.420Z,15.42
2022-10-19T14:20:58.246Z,15.44
2022-10-19T14:23:28.837Z,15.51
2022-10-19T14:25:55.206Z,15.55
2022-10-19T14:28:22.471Z,15.48
2022-10-19T14:31:15.067Z,15.43
2022-10-19T14:33:45.192Z,15.42
2022-10-19T14:36:16.358Z,15.37
2022-10-19T14:38:46.421Z,15.33
2022-10-19T14:41:39.020Z,15.37
2022-10-19T14:44:28.468Z,15.43
2022-10-19T14:46:55.285Z,15.47
2022-10-19T14:49:21.689Z,15.47
2022-10-19T14:51:51.839Z,15.52
2022-10-19T14:54:32.200Z,15.47
2022-10-19T14:57:03.089Z,15.44
2022-10-19T14:59:31.903Z,15.57
2022-10-19T15:02:00.506Z,15.60
2022-10-19T15:04:32.037Z,15.47
2022-10-19T15:07:01.061Z,15.63
2022-10-19T15:09:37.460Z,15.52
2022-10-19T15:12:17.875Z,15.59
2022-10-19T15:14:44.999Z,15.64
2022-10-19T15:17:22.036Z,15.54
2022-10-19T15:19:48.557Z,15.59
2022-10-19T15:22:19.022Z,15.68
2022-10-19T15:25:03.979Z,15.64
2022-10-19T15:27:31.706Z,15.68
2022-10-19T15:29:59.768Z,15.58
2022-10-19T15:32:31.807Z,15.58
2022-10-19T15:34:58.568Z,15.58
2022-10-19T15:39:52.373Z,15.46
2022-10-19T15:42:22.911Z,15.42
2022-10-19T15:44:49.562Z,15.51
2022-10-19T15:47:16.078Z,15.47
2022-10-19T15:49:42.475Z,15.35
2022-10-19T15:52:15.528Z,15.40
2022-10-19T15:54:42.813Z,15.24
2022-10-19T15:57:24.228Z,15.25
2022-10-19T15:59:50.606Z,15.15
2022-10-19T16:02:17.063Z,15.19
2022-10-19T16:04:43.479Z,15.13
2022-10-19T16:07:16.621Z,15.16
2022-10-19T16:09:43.033Z,15.17
2022-10-19T16:12:10.705Z,15.09
2022-10-19T16:14:37.131Z,15.13
2022-10-19T16:17:03.966Z,15.10
2022-10-19T16:19:30.513Z,15.03
2022-10-19T16:21:56.927Z,14.94
2022-10-19T16:24:23.328Z,14.87
2022-10-19T16:26:49.710Z,14.93
2022-10-19T16:29:16.135Z,14.96
2022-10-19T16:31:42.497Z,15.05
2022-10-19T16:34:08.865Z,15.06
2022-10-19T16:36:35.262Z,15.10
2022-10-19T16:39:01.772Z,15.11
2022-10-19T16:41:28.187Z,15.16
2022-10-19T16:43:55.061Z,15.02
2022-10-19T16:46:22.293Z,14.98
2022-10-19T16:48:48.725Z,15.00
2022-10-19T16:51:18.938Z,14.98
2022-10-19T16:53:45.472Z,14.98
2022-10-19T16:56:12.905Z,15.01
2022-10-19T16:58:39.901Z,14.90
2022-10-19T17:01:07.520Z,14.89
2022-10-19T17:03:33.933Z,14.73
2022-10-19T17:06:02.939Z,14.81
2022-10-19T17:08:39.859Z,14.70
2022-10-19T17:11:24.587Z,14.68
2022-10-19T17:13:52.004Z,14.75
2022-10-19T17:16:19.808Z,14.49
2022-10-19T17:18:46.372Z,14.39
2022-10-19T17:21:18.122Z,14.36
2022-10-19T17:23:44.644Z,14.30
2022-10-19T17:26:11.464Z,14.15
2022-10-19T17:28:38.600Z,14.17
2022-10-19T17:31:09.276Z,13.94
2022-10-19T17:33:36.321Z,13.76
2022-10-19T17:36:13.425Z,13.77
2022-10-19T17:38:40.368Z,13.78
2022-10-19T17:41:08.676Z,13.93
2022-10-19T17:43:35.608Z,13.86
2022-10-19T17:46:02.917Z,13.81
2022-10-19T17:48:29.741Z,13.81
2022-10-19T17:51:00.173Z,13.53
2022-10-19T17:53:26.882Z,13.73
2022-10-19T17:55:53.493Z,13.73
2022-10-19T17:58:20.133Z,13.74
2022-10-19T18:00:46.838Z,13.59
2022-10-19T18:03:13.235Z,13.53
2022-10-19T18:05:39.683Z,13.32
2022-10-19T18:08:06.036Z,13.41
2022-10-19T18:10:34.685Z,13.31
2022-10-19T18:13:01.079Z,13.29
2022-10-19T18:15:27.470Z,13.36
2022-10-19T18:17:53.845Z,13.26
2022-10-19T18:20:20.236Z,13.13
2022-10-19T18:22:46.743Z,13.42
2022-10-19T18:25:18.802Z,13.39
2022-10-19T18:27:52.567Z,13.43
2022-10-19T18:30:18.967Z,13.69
2022-10-19T18:32:48.820Z,13.57
2022-10-19T18:35:15.280Z,13.77
2022-10-19T18:37:41.745Z,13.43
2022-10-19T18:40:10.330Z,13.77
2022-10-19T18:42:37.012Z,13.63
2022-10-19T18:45:04.105Z,13.71
2022-10-19T18:47:30.928Z,13.48
2022-10-19T18:49:57.365Z,13.58
2022-10-19T18:52:23.731Z,13.25
2022-10-19T18:54:50.093Z,13.66
2022-10-19T18:57:16.509Z,13.42
2022-10-19T18:59:42.861Z,13.70
2022-10-19T19:02:17.111Z,13.34
2022-10-19T19:04:49.294Z,13.48
2022-10-19T19:07:15.672Z,13.20
2022-10-19T19:09:42.644Z,13.57
2022-10-19T19:12:09.185Z,13.80
2022-10-19T19:14:35.644Z,13.23
2022-10-19T19:17:02.004Z,13.23
2022-10-19T19:19:29.785Z,13.13
2022-10-19T19:21:56.244Z,13.57
2022-10-19T19:24:22.859Z,13.10
2022-10-19T19:26:51.000Z,13.49
2022-10-19T19:29:18.194Z,13.41
2022-10-19T19:31:44.675Z,13.13
2022-10-19T19:34:11.286Z,12.94
2022-10-19T19:36:38.691Z,13.43
2022-10-19T19:39:05.223Z,13.48
2022-10-19T19:41:34.062Z,13.52
2022-10-19T19:44:00.573Z,13.56
2022-10-19T19:46:26.945Z,13.37
2022-10-19T19:48:58.043Z,13.59
2022-10-19T19:51:24.504Z,13.51
2022-10-19T19:53:50.874Z,13.52
2022-10-19T19:56:17.771Z,13.41
2022-10-19T19:58:44.965Z,13.10
2022-10-19T20:01:15.607Z,13.11
2022-10-19T20:03:42.257Z,13.10
2022-10-19T20:06:08.975Z,12.85
2022-10-19T20:08:36.785Z,12.76
2022-10-19T20:11:04.598Z,13.12
2022-10-19T20:13:31.024Z,13.04
2022-10-19T20:15:58.953Z,12.92
2022-10-19T20:18:27.875Z,13.16
2022-10-19T20:20:54.425Z,13.11
2022-10-19T20:23:20.927Z,12.82
2022-10-19T20:25:47.350Z,12.97
2022-10-19T20:28:13.918Z,12.95
2022-10-19T20:30:40.496Z,12.85
2022-10-19T20:33:06.970Z,12.54
2022-10-19T20:35:35.794Z,12.69
2022-10-19T20:38:03.792Z,13.04
2022-10-19T20:42:56.567Z,12.70
2022-10-19T20:45:23.074Z,12.94
2022-10-19T20:47:49.464Z,12.96
2022-10-19T20:50:17.075Z,12.81
2022-10-19T20:52:45.848Z,12.43
2022-10-19T20:55:12.202Z,12.46
2022-10-19T20:57:38.648Z,12.77
2022-10-19T21:00:05.349Z,12.75
2022-10-19T21:02:31.711Z,12.74
2022-10-19T21:04:58.068Z,12.74
2022-10-19T21:07:24.446Z,12.39
2022-10-19T21:09:50.795Z,12.47
2022-10-19T21:12:17.176Z,12.40
2022-10-19T21:14:43.572Z,12.56
2022-10-19T21:17:09.932Z,12.45
2022-10-19T21:19:36.318Z,12.30
2022-10-19T21:22:02.754Z,12.63
2022-10-19T21:24:33.434Z,12.59
2022-10-19T21:27:01.419Z,12.23
2022-10-19T21:29:27.937Z,12.63
2022-10-19T21:31:54.732Z,12.29
2022-10-19T21:34:25.672Z,12.30
2022-10-19T21:36:52.214Z,11.93
2022-10-19T21:39:19.201Z,12.04
2022-10-19T21:41:46.060Z,12.42
2022-10-19T21:44:13.222Z,12.59
2022-10-19T21:46:40.051Z,12.32
2022-10-19T21:49:06.418Z,12.28
2022-10-19T21:51:32.835Z,12.05
2022-10-19T21:53:59.424Z,11.89
2022-10-19T21:56:26.145Z,12.05
2022-10-19T21:58:53.174Z,12.31
2022-10-19T22:01:21.075Z,12.14
2022-10-19T22:03:47.651Z,12.18
2022-10-19T22:06:14.540Z,12.31
2022-10-19T22:08:44.442Z,12.30
2022-10-19T22:18:58.703Z,12.07
2022-10-19T22:21:26.836Z,11.94
2022-10-19T22:23:54.394Z,12.17
2022-10-19T22:26:25.248Z,11.82
2022-10-19T22:28:51.695Z,11.59
2022-10-19T22:31:18.353Z,11.65
2022-10-19T22:33:44.791Z,11.71
2022-10-19T22:36:12.808Z,12.04
2022-10-19T22:38:39.635Z,11.82
2022-10-19T22:41:06.030Z,11.49
2022-10-19T22:43:32.374Z,11.74
2022-10-19T22:45:58.750Z,11.63
2022-10-19T22:48:25.120Z,11.82
2022-10-19T22:50:54.347Z,11.75
2022-10-19T22:53:21.795Z,11.81
2022-10-19T22:55:48.195Z,11.90
2022-10-19T22:58:14.660Z,11.76
2022-10-19T23:00:41.027Z,11.87
2022-10-19T23:03:07.454Z,11.92
2022-10-19T23:05:33.841Z,11.67
2022-10-19T23:08:00.207Z,11.76
2022-10-19T23:10:26.701Z,11.77
2022-10-19T23:12:53.699Z,11.43
2022-10-19T23:15:20.784Z,11.53
2022-10-19T23:17:47.341Z,11.65
2022-10-19T23:20:14.066Z,11.53
2022-10-19T23:22:40.742Z,11.62
2022-10-19T23:25:07.419Z,11.41
2022-10-19T23:27:34.028Z,11.72
2022-10-19T23:30:00.835Z,11.45
2022-10-19T23:32:27.179Z,11.44
2022-10-19T23:34:53.814Z,11.49
2022-10-19T23:37:20.192Z,11.70
2022-10-19T23:39:46.540Z,11.75
2022-10-19T23:42:12.922Z,11.71
2022-10-19T23:44:39.289Z,11.61
2022-10-19T23:47:05.636Z,11.68
2022-10-19T23:49:32.042Z,11.72
2022-10-19T23:51:58.406Z,11.42
2022-10-19T23:54:24.831Z,11.64
2022-10-19T23:56:51.171Z,11.50
2022-10-19T23:59:17.700Z,11.42
